Time;durP1;ratioP1;P1;durP2;ratioP2;P2;SDS_P1;SDS_P2;PMS_P1;PMS_P2;Temp;Humidity;BMP_temperature;BMP_pressure;BME280_temperature;BME280_humidity;BME280_pressure;Samples;Min_cycle;Max_cycle;Signal;HPM_P1;HPM_P2
2022/10/12 00:02:06;;;;;;;12.55;5.20;;;;;;;5.39;100.00;153887.69;4955415;28;20103;-76
2022/10/12 00:04:33;;;;;;;10.68;4.20;;;;;;;5.46;100.00;153905.53;4936958;29;20039;-76
2022/10/12 00:07:01;;;;;;;8.55;4.40;;;;;;;5.52;100.00;153920.94;4934305;29;20038;-74
2022/10/12 00:09:27;;;;;;;10.07;4.32;;;;;;;5.46;100.00;153906.88;4935006;29;20039;-77
2022/10/12 00:11:53;;;;;;;9.93;5.03;;;;;;;5.55;100.00;153927.31;4951959;28;20042;-77
2022/10/12 00:14:22;;;;;;;13.30;5.15;;;;;;;5.58;100.00;153936.25;4933280;29;20043;-78
2022/10/12 00:16:47;;;;;;;17.92;5.30;;;;;;;5.69;100.00;153961.81;4951284;29;20089;-78
2022/10/12 00:19:13;;;;;;;11.73;5.40;;;;;;;5.79;100.00;153987.41;4929812;29;20674;-76
2022/10/12 00:21:39;;;;;;;12.65;4.97;;;;;;;5.82;100.00;153995.06;4949957;29;20038;-77
2022/10/12 00:24:06;;;;;;;19.60;5.70;;;;;;;5.87;100.00;154007.88;4954394;28;20093;-75
2022/10/12 00:26:32;;;;;;;13.63;5.90;;;;;;;5.89;100.00;154012.97;4934120;29;20045;-77
2022/10/12 00:29:00;;;;;;;13.50;5.68;;;;;;;5.97;100.00;154033.50;4994838;23;20121;-77
2022/10/12 00:31:27;;;;;;;14.00;6.15;;;;;;;6.01;100.00;154042.47;4989812;28;20049;-75
2022/10/12 00:33:54;;;;;;;17.92;6.80;;;;;;;5.98;100.00;154036.03;4976207;28;20034;-75
2022/10/12 00:36:29;;;;;;;13.57;5.78;;;;;;;6.01;100.00;154042.47;5004550;28;20089;-75
2022/10/12 00:38:55;;;;;;;12.25;5.68;;;;;;;5.98;100.00;154036.03;4973076;28;20407;-77
2022/10/12 00:41:26;;;;;;;14.52;6.13;;;;;;;6.03;100.00;154048.84;4973146;28;20049;-77
2022/10/12 00:43:53;;;;;;;14.45;5.72;;;;;;;5.99;100.00;154037.31;5001742;28;20109;-74
2022/10/12 00:46:34;;;;;;;18.08;5.78;;;;;;;6.04;100.00;154050.13;4975750;28;20042;-74
2022/10/12 00:49:00;;;;;;;8.93;5.10;;;;;;;6.08;100.00;154060.34;4973297;28;20042;-76
2022/10/12 00:51:27;;;;;;;13.52;5.60;;;;;;;6.09;100.00;154061.66;4976927;28;20053;-73
2022/10/12 00:53:59;;;;;;;11.98;6.20;;;;;;;6.17;100.00;154082.09;4976464;28;20048;-75
2022/10/12 00:56:29;;;;;;;13.38;5.88;;;;;;;6.21;100.00;154092.34;4974073;28;20038;-80
2022/10/12 00:58:59;;;;;;;15.23;6.25;;;;;;;6.23;100.00;154098.75;4988664;28;20053;-75
2022/10/12 01:01:26;;;;;;;12.85;6.15;;;;;;;6.24;100.00;154101.28;4986437;28;20843;-77
2022/10/12 01:03:52;;;;;;;12.82;5.70;;;;;;;6.26;100.00;154103.88;4969431;28;20128;-76
2022/10/12 01:06:18;;;;;;;16.20;6.38;;;;;;;6.28;100.00;154108.97;4981636;28;20042;-77
2022/10/12 01:08:45;;;;;;;12.23;5.80;;;;;;;6.31;100.00;154116.63;4969021;28;20049;-77
2022/10/12 01:11:11;;;;;;;23.23;7.40;;;;;;;6.29;100.00;154112.84;4962360;28;20749;-76
2022/10/12 01:13:37;;;;;;;14.02;6.20;;;;;;;6.27;100.00;154107.66;4982804;28;20030;-77
2022/10/12 01:16:28;;;;;;;18.45;6.05;;;;;;;6.29;100.00;154111.50;4998998;28;20053;-76
2022/10/12 01:19:15;;;;;;;13.95;6.50;;;;;;;6.28;100.00;154108.97;4995685;28;20042;-77
2022/10/12 01:21:49;;;;;;;12.77;6.18;;;;;;;6.29;100.00;154112.84;4947109;28;20053;-75
2022/10/12 01:24:30;;;;;;;15.45;6.85;;;;;;;6.33;100.00;154123.06;4994407;28;20399;-76
2022/10/12 01:27:33;;;;;;;15.75;6.18;;;;;;;6.35;100.00;154126.91;4984066;28;20060;-77
2022/10/12 01:30:07;;;;;;;22.10;6.90;;;;;;;6.41;100.00;154143.50;4985042;28;20049;-77
2022/10/12 01:32:46;;;;;;;13.90;5.70;;;;;;;6.41;100.00;154143.50;4990160;28;20037;-84
2022/10/12 01:35:23;;;;;;;17.05;6.63;;;;;;;6.43;100.00;154148.63;4986209;28;21143;-78
2022/10/12 01:38:04;;;;;;;16.08;6.43;;;;;;;6.43;100.00;154148.63;4982474;28;20039;-77
2022/10/12 01:40:40;;;;;;;15.30;6.13;;;;;;;6.43;100.00;154147.34;4982802;28;20048;-75
2022/10/12 01:43:07;;;;;;;14.60;6.15;;;;;;;6.48;100.00;154158.84;4980827;28;20026;-76
2022/10/12 01:45:33;;;;;;;18.95;6.70;;;;;;;6.44;100.00;154149.88;4967252;28;20443;-77
2022/10/12 01:48:00;;;;;;;17.08;6.55;;;;;;;6.46;100.00;154155.06;4983267;28;20038;-76
2022/10/12 01:50:35;;;;;;;11.23;6.38;;;;;;;6.48;100.00;154158.84;4985870;28;20038;-76
2022/10/12 01:53:27;;;;;;;13.75;6.32;;;;;;;6.55;100.00;154178.03;4968206;28;20042;-76
2022/10/12 01:56:20;;;;;;;13.85;6.15;;;;;;;6.58;100.00;154185.72;4956217;28;20129;-78
2022/10/12 01:59:00;;;;;;;;;;;;;;;6.57;100.00;154183.19;4969448;28;20710;-75
2022/10/12 02:01:39;;;;;;;12.50;5.72;;;;;;;6.58;100.00;154185.72;4990452;28;19922;-76
2022/10/12 02:04:44;;;;;;;17.60;6.20;;;;;;;6.63;100.00;154197.28;4974230;28;20121;-77
2022/10/12 02:07:21;;;;;;;20.90;6.13;;;;;;;6.69;100.00;154212.63;4958622;28;20058;-77
2022/10/12 02:09:47;;;;;;;12.30;6.35;;;;;;;6.72;100.00;154220.28;4982650;28;20039;-78
2022/10/12 02:12:18;;;;;;;14.73;6.43;;;;;;;6.75;100.00;154226.69;4967594;28;20612;-76
2022/10/12 02:14:55;;;;;;;17.98;6.75;;;;;;;6.78;100.00;154235.66;4973557;28;20061;-74
2022/10/12 02:17:22;;;;;;;14.90;6.53;;;;;;;6.86;100.00;154253.59;4972528;28;20053;-76
2022/10/12 02:19:56;;;;;;;18.08;7.13;;;;;;;6.82;100.00;154245.88;4974004;28;20073;-75
2022/10/12 02:22:33;;;;;;;12.73;7.20;;;;;;;6.81;100.00;154243.31;4998468;28;20047;-77
2022/10/12 02:25:02;;;;;;;17.63;7.03;;;;;;;6.81;100.00;154242.03;4974024;28;20041;-76
2022/10/12 02:27:28;;;;;;;19.00;7.30;;;;;;;6.84;100.00;154249.72;4988668;28;21527;-77
2022/10/12 02:29:54;;;;;;;13.75;6.45;;;;;;;6.82;100.00;154245.88;4993153;28;20073;-78
2022/10/12 02:32:41;;;;;;;19.65;6.70;;;;;;;6.79;100.00;154236.94;4956926;28;20499;-76
2022/10/12 02:35:07;;;;;;;20.13;7.18;;;;;;;6.80;100.00;154240.78;4973827;28;20495;-77
2022/10/12 02:37:51;;;;;;;18.42;7.15;;;;;;;6.80;100.00;154240.78;4992289;28;20049;-76
2022/10/12 02:40:29;;;;;;;16.75;7.40;;;;;;;6.86;100.00;154254.84;4987854;28;20034;-78
2022/10/12 02:43:00;;;;;;;14.68;6.28;;;;;;;6.89;100.00;154262.50;4972675;28;20605;-76
2022/10/12 02:45:27;;;;;;;17.17;6.60;;;;;;;6.89;100.00;154262.50;4977298;28;20037;-77
2022/10/12 02:47:54;;;;;;;13.73;6.78;;;;;;;6.86;100.00;154254.84;4958325;28;20038;-76
2022/10/12 02:50:22;;;;;;;14.43;6.78;;;;;;;6.90;100.00;154265.09;4973111;28;20038;-76
2022/10/12 02:52:49;;;;;;;14.20;6.45;;;;;;;6.96;100.00;154279.16;4972467;28;20034;-77
2022/10/12 02:55:15;;;;;;;14.98;6.22;;;;;;;6.96;100.00;154279.16;4986939;28;20041;-76
2022/10/12 02:57:41;;;;;;;12.57;6.25;;;;;;;6.96;100.00;154280.44;4960034;28;20133;-77
2022/10/12 03:00:08;;;;;;;17.92;7.00;;;;;;;6.98;100.00;154285.53;4959938;28;20745;-79
2022/10/12 03:02:33;;;;;;;11.98;6.10;;;;;;;7.06;100.00;154303.47;4988805;28;20491;-77
2022/10/12 03:04:59;;;;;;;15.35;6.80;;;;;;;6.98;100.00;154285.53;4991132;28;20066;-78
2022/10/12 03:07:24;;;;;;;13.48;6.53;;;;;;;7.01;100.00;154293.25;4971376;28;20042;-78
2022/10/12 03:09:51;;;;;;;13.00;6.03;;;;;;;7.12;100.00;154318.81;4988895;28;20054;-78
2022/10/12 03:12:16;;;;;;;11.30;5.80;;;;;;;7.15;100.00;154326.50;4991577;28;20518;-76
2022/10/12 03:14:42;;;;;;;13.93;6.38;;;;;;;7.16;100.00;154329.09;4973140;28;20030;-79
2022/10/12 03:17:07;;;;;;;14.88;6.47;;;;;;;7.18;100.00;154335.47;4971968;28;20046;-76
2022/10/12 03:19:34;;;;;;;12.18;6.15;;;;;;;7.16;100.00;154329.09;4981798;28;20034;-77
2022/10/12 03:21:59;;;;;;;13.15;6.55;;;;;;;7.14;100.00;154325.25;4957002;28;20038;-79
2022/10/12 03:24:25;;;;;;;12.10;6.50;;;;;;;7.17;100.00;154332.91;4959635;28;20051;-78
2022/10/12 03:26:50;;;;;;;12.18;6.05;;;;;;;7.16;100.00;154329.09;4972964;28;20034;-78
2022/10/12 03:29:16;;;;;;;13.68;6.38;;;;;;;7.15;100.00;154327.78;4976313;28;20107;-78
2022/10/12 03:31:42;;;;;;;15.35;6.60;;;;;;;7.14;100.00;154325.25;4960908;28;20034;-78
2022/10/12 03:34:08;;;;;;;21.75;6.82;;;;;;;7.18;100.00;154335.47;4988969;28;20038;-83
2022/10/12 03:36:33;;;;;;;10.93;6.15;;;;;;;7.15;100.00;154327.78;4976471;28;20093;-78
2022/10/12 03:38:59;;;;;;;12.57;6.25;;;;;;;7.18;100.00;154335.47;4967207;28;20046;-77
2022/10/12 03:41:25;;;;;;;13.23;6.35;;;;;;;7.19;100.00;154338.00;4987955;28;20034;-76
2022/10/12 03:43:50;;;;;;;13.45;6.15;;;;;;;7.22;100.00;154344.44;4986475;28;20026;-76
2022/10/12 03:46:16;;;;;;;14.98;6.40;;;;;;;7.26;100.00;154353.41;4974578;28;20081;-78
2022/10/12 03:48:41;;;;;;;17.55;6.68;;;;;;;7.26;100.00;154354.69;4990393;28;20038;-77
2022/10/12 03:51:07;;;;;;;13.90;6.55;;;;;;;7.17;100.00;154331.63;4965298;28;20529;-77
2022/10/12 03:53:33;;;;;;;14.95;6.47;;;;;;;7.21;100.00;154341.88;4991305;28;20058;-76
2022/10/12 03:55:58;;;;;;;15.35;6.40;;;;;;;7.26;100.00;154353.41;5007859;28;20496;-77
2022/10/12 03:58:25;;;;;;;16.58;5.68;;;;;;;7.27;100.00;154357.25;4970638;28;20530;-77
2022/10/12 04:00:54;;;;;;;14.07;5.60;;;;;;;7.29;100.00;154362.38;4990402;28;20061;-78
2022/10/12 04:03:20;;;;;;;20.33;7.07;;;;;;;7.31;100.00;154367.50;4967145;28;20042;-77
2022/10/12 04:05:56;;;;;;;19.08;6.13;;;;;;;7.31;100.00;154367.50;4972522;28;20045;-76
2022/10/12 04:08:22;;;;;;;15.48;6.00;;;;;;;7.30;100.00;154363.66;4973663;28;20034;-77
2022/10/12 04:10:51;;;;;;;15.52;6.10;;;;;;;7.32;100.00;154368.75;4987489;28;20108;-77
2022/10/12 04:13:17;;;;;;;17.90;6.20;;;;;;;7.35;100.00;154377.72;4975149;28;20041;-75
2022/10/12 04:15:43;;;;;;;15.13;5.80;;;;;;;7.36;100.00;154380.25;4989631;28;20041;-78
2022/10/12 04:18:09;;;;;;;15.10;5.72;;;;;;;7.35;100.00;154376.47;4987162;28;20043;-80
2022/10/12 04:20:35;;;;;;;11.77;5.60;;;;;;;7.39;100.00;154386.69;4974141;28;20045;-76
2022/10/12 04:23:00;;;;;;;12.60;6.13;;;;;;;7.38;100.00;154384.09;4973712;28;20045;-76
2022/10/12 04:25:26;;;;;;;18.92;6.53;;;;;;;7.38;100.00;154385.44;4988165;28;20027;-76
2022/10/12 04:27:52;;;;;;;15.35;5.97;;;;;;;7.39;100.00;154387.97;4988397;28;20022;-76
2022/10/12 04:30:17;;;;;;;15.10;6.53;;;;;;;7.36;100.00;154380.25;5004743;28;20034;-77
2022/10/12 04:32:43;;;;;;;17.33;5.80;;;;;;;7.32;100.00;154370.03;4988206;28;20030;-76
2022/10/12 04:35:09;;;;;;;17.00;5.57;;;;;;;7.30;100.00;154363.66;5006842;28;20026;-77
2022/10/12 04:37:34;;;;;;;15.85;5.25;;;;;;;7.27;100.00;154355.94;4978124;28;20042;-77
2022/10/12 04:40:03;;;;;;;12.13;5.57;;;;;;;7.28;100.00;154358.53;4987185;28;20042;-76
2022/10/12 04:42:29;;;;;;;15.18;5.80;;;;;;;7.25;100.00;154350.81;4987801;28;20638;-77
2022/10/12 04:44:55;;;;;;;19.13;6.40;;;;;;;7.17;100.00;154331.63;4990767;28;20134;-77
2022/10/12 04:47:21;;;;;;;8.15;5.05;;;;;;;7.13;100.00;154322.66;4987177;28;20970;-77
2022/10/12 04:49:46;;;;;;;12.65;5.05;;;;;;;7.02;100.00;154294.50;5002609;28;20034;-77
2022/10/12 04:52:12;;;;;;;12.70;5.50;;;;;;;6.95;100.00;154276.56;4979965;28;20128;-75
2022/10/12 04:54:38;;;;;;;14.40;5.20;;;;;;;6.86;100.00;154253.59;4965828;28;20657;-77
2022/10/12 04:57:03;;;;;;;12.27;4.80;;;;;;;6.76;100.00;154230.53;4989395;28;20037;-75
2022/10/12 04:59:29;;;;;;;13.70;4.95;;;;;;;6.75;100.00;154227.97;4977029;28;20031;-81
2022/10/12 05:01:55;;;;;;;14.10;4.95;;;;;;;6.73;100.00;154222.84;4987476;28;20101;-77
2022/10/12 05:04:20;;;;;;;15.70;5.43;;;;;;;6.80;100.00;154239.50;4984028;28;20038;-77
2022/10/12 05:06:46;;;;;;;11.68;4.75;;;;;;;6.66;100.00;154203.66;4967316;28;20049;-77
2022/10/12 05:09:11;;;;;;;13.68;4.82;;;;;;;6.56;100.00;154180.63;4969761;28;20437;-78
2022/10/12 05:11:37;;;;;;;12.32;4.63;;;;;;;6.51;100.00;154166.53;4965866;28;20066;-76
2022/10/12 05:14:03;;;;;;;13.82;4.78;;;;;;;6.42;100.00;154144.78;4964510;28;20035;-78
2022/10/12 05:16:28;;;;;;;12.18;4.68;;;;;;;6.32;100.00;154119.22;4967303;28;20469;-76
2022/10/12 05:18:54;;;;;;;12.40;4.85;;;;;;;6.25;100.00;154102.56;4939284;28;20085;-77
2022/10/12 05:21:19;;;;;;;10.25;5.05;;;;;;;6.19;100.00;154087.22;4970273;28;20030;-74
2022/10/12 05:23:49;;;;;;;11.98;4.50;;;;;;;6.14;100.00;154074.41;4954843;28;20035;-76
2022/10/12 05:26:15;;;;;;;10.80;4.60;;;;;;;6.07;100.00;154057.81;4967077;28;20041;-75
2022/10/12 05:28:41;;;;;;;10.48;4.55;;;;;;;6.02;100.00;154046.28;4966341;28;20030;-76
2022/10/12 05:31:09;;;;;;;14.90;4.60;;;;;;;5.99;100.00;154038.63;4985830;28;20089;-77
2022/10/12 05:33:35;;;;;;;13.50;4.97;;;;;;;5.93;100.00;154021.94;4967620;28;20093;-75
2022/10/12 05:36:01;;;;;;;18.13;5.45;;;;;;;5.87;100.00;154006.59;4986589;28;20451;-77
2022/10/12 05:38:26;;;;;;;17.15;5.10;;;;;;;5.83;100.00;153997.63;4968798;28;20102;-76
2022/10/12 05:40:53;;;;;;;12.43;4.53;;;;;;;5.82;100.00;153996.38;4969555;28;20066;-77
2022/10/12 05:43:18;;;;;;;17.88;4.38;;;;;;;5.80;100.00;153991.25;4970195;28;20531;-75
2022/10/12 05:45:44;;;;;;;14.57;4.43;;;;;;;5.73;100.00;153972.09;4970533;28;20027;-76
2022/10/12 05:48:09;;;;;;;16.80;4.70;;;;;;;5.70;100.00;153964.41;4970738;28;20038;-76
2022/10/12 05:50:35;;;;;;;14.98;4.22;;;;;;;5.68;100.00;153959.28;4956547;28;20102;-77
2022/10/12 05:53:01;;;;;;;12.20;3.70;;;;;;;5.65;100.00;153952.84;4947281;28;20609;-79
2022/10/12 05:55:26;;;;;;;14.70;4.03;;;;;;;5.62;100.00;153946.47;4951319;28;20062;-75
2022/10/12 05:57:52;;;;;;;17.33;4.30;;;;;;;5.59;100.00;153938.78;4970230;28;20041;-77
2022/10/12 06:00:17;;;;;;;8.82;3.58;;;;;;;5.59;100.00;153937.53;4939819;28;20046;-76
2022/10/12 06:02:43;;;;;;;15.77;4.25;;;;;;;5.55;100.00;153928.56;4969026;28;20113;-76
2022/10/12 06:05:09;;;;;;;18.10;4.90;;;;;;;5.57;100.00;153932.41;4935537;28;20448;-76
2022/10/12 06:07:35;;;;;;;12.80;4.10;;;;;;;5.59;100.00;153937.53;4984511;28;20035;-75
2022/10/12 06:10:00;;;;;;;12.95;4.72;;;;;;;5.61;100.00;153942.63;4949541;28;20039;-74
2022/10/12 06:12:27;;;;;;;13.95;4.63;;;;;;;5.62;100.00;153946.47;4968042;28;20042;-78
2022/10/12 06:14:52;;;;;;;11.70;4.45;;;;;;;5.63;100.00;153947.75;4953250;28;20065;-76
2022/10/12 06:17:18;;;;;;;12.40;4.40;;;;;;;5.65;100.00;153952.84;4952262;28;20488;-74
2022/10/12 06:19:43;;;;;;;15.55;4.85;;;;;;;5.69;100.00;153963.13;4952656;28;20093;-75
2022/10/12 06:22:09;;;;;;;15.23;4.68;;;;;;;5.81;100.00;153992.53;4967929;28;20043;-76
2022/10/12 06:24:34;;;;;;;11.90;4.93;;;;;;;5.90;100.00;154015.56;4968734;28;20054;-76
2022/10/12 06:27:00;;;;;;;16.30;5.20;;;;;;;6.02;100.00;154045.00;4952920;28;20480;-75
2022/10/12 06:29:26;;;;;;;13.65;4.47;;;;;;;6.13;100.00;154071.88;4987117;28;20050;-75
2022/10/12 06:31:53;;;;;;;14.40;5.43;;;;;;;6.28;100.00;154108.97;4987904;28;20030;-75
2022/10/12 06:34:19;;;;;;;15.50;4.90;;;;;;;6.47;100.00;154156.31;4972071;28;20031;-76
2022/10/12 06:36:45;;;;;;;16.67;4.93;;;;;;;6.59;100.00;154188.31;4968671;28;20062;-75
2022/10/12 06:39:11;;;;;;;14.43;4.55;;;;;;;6.74;100.00;154225.44;4982988;28;20685;-75
2022/10/12 06:41:37;;;;;;;13.13;5.22;;;;;;;6.96;100.00;154280.44;4950316;28;20046;-77
2022/10/12 06:44:07;;;;;;;12.93;5.10;;;;;;;7.10;100.00;154315.03;4952384;28;20732;-76
2022/10/12 06:46:33;;;;;;;14.50;5.25;;;;;;;7.24;100.00;154348.28;4969024;28;20100;-75
2022/10/12 06:48:58;;;;;;;12.57;4.90;;;;;;;7.35;100.00;154376.47;4970107;28;20035;-75
2022/10/12 06:51:24;;;;;;;13.68;4.72;;;;;;;7.43;100.00;154395.66;4953381;28;20038;-75
2022/10/12 06:53:49;;;;;;;18.70;5.65;;;;;;;7.55;100.00;154426.34;4973169;28;20039;-75
2022/10/12 06:56:15;;;;;;;13.82;4.18;;;;;;;7.65;100.00;154450.69;4950735;28;20031;-78
2022/10/12 06:58:40;;;;;;;13.32;5.03;;;;;;;7.71;100.00;154466.09;4964409;28;20479;-76
2022/10/12 07:01:09;;;;;;;19.25;4.82;;;;;;;7.86;100.00;154504.50;4975536;28;20137;-76
2022/10/12 07:03:35;;;;;;;12.50;3.88;;;;;;;8.00;100.00;154539.06;4971934;28;20035;-77
2022/10/12 07:06:08;;;;;;;14.02;3.78;;;;;;;8.08;100.00;154559.56;4971970;28;20100;-76
2022/10/12 07:08:34;;;;;;;17.45;4.43;;;;;;;8.17;100.00;154581.31;4953575;28;20043;-76
2022/10/12 07:11:07;;;;;;;14.40;4.10;;;;;;;8.25;100.00;154601.84;4955951;28;20578;-76
2022/10/12 07:13:33;;;;;;;21.17;4.68;;;;;;;8.34;100.00;154623.59;4954989;28;20496;-76
2022/10/12 07:15:59;;;;;;;13.70;3.97;;;;;;;8.38;100.00;154635.16;4951829;28;20055;-76
2022/10/12 07:18:24;;;;;;;17.92;4.43;;;;;;;8.45;100.00;154650.56;4947685;28;20456;-75
2022/10/12 07:20:50;;;;;;;11.13;3.72;;;;;;;8.53;100.00;154672.38;4951963;28;20043;-78
2022/10/12 07:23:16;;;;;;;15.98;3.85;;;;;;;8.63;100.00;154695.44;4954283;28;20034;-77
2022/10/12 07:25:52;;;;;;;12.70;3.50;;;;;;;8.67;100.00;154705.66;4970806;28;20023;-77
2022/10/12 07:28:19;;;;;;;9.65;4.05;;;;;;;8.74;100.00;154724.88;4953693;28;20045;-76
2022/10/12 07:30:45;;;;;;;13.35;3.55;;;;;;;8.80;100.00;154737.66;4950282;28;20041;-76
2022/10/12 07:33:11;;;;;;;19.83;3.95;;;;;;;8.86;100.00;154753.06;4983003;28;20041;-77
2022/10/12 07:35:37;;;;;;;13.10;3.50;;;;;;;8.96;100.00;154779.97;4953989;28;20035;-76
2022/10/12 07:38:03;;;;;;;11.45;3.05;;;;;;;9.00;100.00;154787.66;4968447;28;20053;-75
2022/10/12 07:40:29;;;;;;;13.35;3.25;;;;;;;9.14;100.00;154823.56;4951105;28;20042;-77
2022/10/12 07:42:55;;;;;;;14.00;3.47;;;;;;;9.25;100.00;154850.44;4933541;28;20519;-75
2022/10/12 07:45:21;;;;;;;13.38;2.90;;;;;;;9.29;100.00;154862.03;4956313;28;20031;-80
2022/10/12 07:47:46;;;;;;;11.55;3.00;;;;;;;9.28;100.00;154859.44;4955751;28;20598;-75
2022/10/12 07:50:13;;;;;;;12.52;3.10;;;;;;;9.26;100.00;154854.31;4970415;28;20189;-76
2022/10/12 07:52:39;;;;;;;14.98;3.25;;;;;;;9.34;100.00;154873.53;4973892;28;20038;-76
2022/10/12 07:55:06;;;;;;;12.27;2.97;;;;;;;9.42;100.00;154892.75;4950768;28;20114;-76
2022/10/12 07:57:32;;;;;;;12.98;2.83;;;;;;;9.57;100.00;154931.25;4971580;28;20514;-75
2022/10/12 07:59:57;;;;;;;18.70;3.25;;;;;;;9.67;100.00;154956.88;4968362;28;20035;-75
2022/10/12 08:02:23;;;;;;;14.88;3.40;;;;;;;9.79;100.00;154985.09;4968235;28;20062;-76
2022/10/12 08:04:48;;;;;;;16.13;3.13;;;;;;;9.73;100.00;154970.97;4951542;28;20038;-75
2022/10/12 08:07:14;;;;;;;13.80;3.03;;;;;;;9.69;100.00;154960.75;5003909;28;20426;-74
2022/10/12 08:09:40;;;;;;;9.88;3.10;;;;;;;9.66;100.00;154954.34;4990008;28;20049;-76
2022/10/12 08:12:06;;;;;;;11.55;2.80;;;;;;;9.78;100.00;154983.81;4990714;28;20037;-74
2022/10/12 08:14:32;;;;;;;13.98;2.85;;;;;;;9.84;100.00;154999.19;4973079;28;20407;-75
2022/10/12 08:16:57;;;;;;;19.70;4.05;;;;;;;9.77;100.00;154979.97;5003725;28;20045;-75
2022/10/12 08:19:23;;;;;;;12.07;2.75;;;;;;;9.73;100.00;154972.25;5007217;28;20034;-78
2022/10/12 08:21:49;;;;;;;12.30;3.17;;;;;;;9.94;100.00;155023.56;5006188;28;20046;-75
2022/10/12 08:24:15;;;;;;;15.27;2.85;;;;;;;10.11;100.00;155065.88;5007676;28;20040;-78
2022/10/12 08:26:40;;;;;;;15.70;2.92;;;;;;;10.27;100.00;155106.94;4991001;28;20045;-75
2022/10/12 08:29:07;;;;;;;9.10;2.65;;;;;;;10.31;100.00;155117.22;5005915;28;20042;-76
2022/10/12 08:31:33;;;;;;;16.42;3.00;;;;;;;10.49;100.00;155160.84;5000566;28;20037;-75
2022/10/12 08:33:59;;;;;;;14.65;2.70;;;;;;;10.43;100.00;155146.72;5005600;28;20045;-75
2022/10/12 08:36:25;;;;;;;16.15;3.00;;;;;;;10.46;100.00;155154.44;4988609;28;20042;-73
2022/10/12 08:38:53;;;;;;;16.52;3.15;;;;;;;10.46;100.00;155153.16;4991700;28;20030;-74
2022/10/12 08:41:34;;;;;;;16.33;3.13;;;;;;;10.55;100.00;155176.28;4989885;28;20037;-75
2022/10/12 08:44:06;;;;;;;17.30;2.80;;;;;;;10.63;100.00;155196.78;4990904;28;20044;-76
2022/10/12 08:46:33;;;;;;;13.98;2.80;;;;;;;10.64;100.00;155199.38;5005621;28;20516;-74
2022/10/12 08:49:21;;;;;;;17.98;3.35;;;;;;;10.74;100.00;155223.72;4992399;28;20123;-75
2022/10/12 08:52:03;;;;;;;15.63;3.47;;;;;;;10.80;100.00;155237.84;5008346;28;20038;-76
2022/10/12 08:54:37;;;;;;;18.15;3.42;;;;;;;10.85;100.00;155251.97;4989703;28;20036;-75
2022/10/12 08:57:03;;;;;;;18.70;4.22;;;;;;;11.03;100.00;155296.84;4984342;28;20069;-76
2022/10/12 08:59:32;;;;;;;14.98;3.00;;;;;;;11.10;100.00;155313.56;4987580;28;20061;-77
2022/10/12 09:02:20;;;;;;;15.63;3.10;;;;;;;11.21;100.00;155341.78;4991121;28;20525;-75
2022/10/12 09:04:57;;;;;;;15.27;3.42;;;;;;;11.41;100.00;155391.81;5002036;28;20030;-78
2022/10/12 09:07:38;;;;;;;18.52;3.67;;;;;;;11.44;100.00;155398.25;5006366;28;20398;-74
2022/10/12 09:10:23;;;;;;;18.15;3.40;;;;;;;11.35;100.00;155376.44;4983188;28;20392;-76
2022/10/12 09:13:06;;;;;;;16.80;2.80;;;;;;;11.40;100.00;155388.00;4984456;28;20029;-76
2022/10/12 09:15:42;;;;;;;19.33;4.00;;;;;;;11.56;100.00;155427.78;5002418;28;20057;-78
2022/10/12 09:18:27;;;;;;;13.75;3.35;;;;;;;11.63;100.00;155445.75;4989180;28;20929;-76
2022/10/12 09:20:55;;;;;;;17.60;3.03;;;;;;;11.79;100.00;155486.84;5001323;28;20057;-76
2022/10/12 09:23:30;;;;;;;13.10;3.13;;;;;;;11.88;100.00;155508.66;5005728;28;20057;-75
2022/10/12 09:26:08;;;;;;;14.85;3.30;;;;;;;11.91;100.00;155516.44;4990262;28;20038;-75
2022/10/12 09:28:57;;;;;;;9.35;2.72;;;;;;;11.91;100.00;155515.16;4998970;28;20045;-76
2022/10/12 09:31:32;;;;;;;20.00;3.22;;;;;;;12.05;100.00;155552.41;4995497;28;20054;-75
2022/10/12 09:34:01;;;;;;;15.60;2.83;;;;;;;12.06;100.00;155553.66;5005994;28;20042;-76
2022/10/12 09:36:30;;;;;;;20.48;3.50;;;;;;;12.18;100.00;155583.19;4972978;28;20034;-76
2022/10/12 09:38:58;;;;;;;16.48;2.85;;;;;;;12.20;100.00;155588.31;5007036;28;20038;-74
2022/10/12 09:41:31;;;;;;;16.52;2.97;;;;;;;12.23;100.00;155597.31;4988921;28;20069;-77
2022/10/12 09:44:00;;;;;;;19.45;3.13;;;;;;;12.24;100.00;155598.59;4991410;28;20032;-75
2022/10/12 09:46:54;;;;;;;12.30;2.78;;;;;;;12.29;100.00;155610.19;4990745;28;20049;-76
2022/10/12 09:49:19;;;;;;;14.68;3.20;;;;;;;12.44;100.00;155649.97;4980203;28;20053;-76
2022/10/12 09:51:45;;;;;;;14.80;2.97;;;;;;;12.62;100.00;155694.94;4991016;28;20124;-75
2022/10/12 09:54:17;;;;;;;12.77;2.75;;;;;;;12.61;100.00;155691.09;5007636;28;20042;-74
2022/10/12 09:56:51;;;;;;;18.85;3.55;;;;;;;12.58;100.00;155684.69;5007234;28;21379;-77
2022/10/12 09:59:27;;;;;;;12.77;2.53;;;;;;;12.71;96.97;155716.75;5023392;28;20125;-75
2022/10/12 10:02:14;;;;;;;17.45;2.90;;;;;;;12.68;98.87;155709.09;4994879;28;20754;-77
2022/10/12 10:04:42;;;;;;;14.82;3.53;;;;;;;12.79;98.12;155736.03;4997348;28;20045;-77
2022/10/12 10:07:29;;;;;;;17.40;2.92;;;;;;;12.93;97.32;155770.75;5001968;28;20423;-79
2022/10/12 10:10:16;;;;;;;11.30;2.55;;;;;;;12.95;97.30;155777.16;5008985;28;20034;-76
2022/10/12 10:13:00;;;;;;;15.20;2.75;;;;;;;12.90;98.74;155763.03;4990180;28;20092;-77
2022/10/12 10:15:27;;;;;;;16.60;3.13;;;;;;;12.93;98.15;155770.75;5006601;28;20043;-77
2022/10/12 10:17:56;;;;;;;16.02;2.30;;;;;;;13.07;97.59;155805.41;5007589;28;20100;-77
2022/10/12 10:20:27;;;;;;;16.65;2.78;;;;;;;13.15;97.72;155826.00;5008712;28;20036;-76
2022/10/12 10:22:53;;;;;;;16.90;2.67;;;;;;;13.38;95.86;155883.88;4978694;28;20037;-77
2022/10/12 10:25:21;;;;;;;16.95;3.03;;;;;;;13.40;89.92;155890.28;5008242;28;20045;-77
2022/10/12 10:27:49;;;;;;;16.02;2.45;;;;;;;13.48;90.05;155909.56;5011570;28;20111;-77
2022/10/12 10:30:14;;;;;;;16.02;2.60;;;;;;;13.52;93.22;155919.84;4993503;28;20042;-78
2022/10/12 10:32:43;;;;;;;12.82;2.50;;;;;;;13.58;94.31;155935.28;4994882;28;20050;-78
2022/10/12 10:35:12;;;;;;;17.92;2.55;;;;;;;13.58;90.37;155935.28;5004088;28;20035;-77
2022/10/12 10:37:54;;;;;;;14.18;2.63;;;;;;;13.70;91.47;155964.84;5009596;28;20042;-78
2022/10/12 10:40:27;;;;;;;12.93;1.90;;;;;;;13.84;89.01;155999.53;4978398;28;20044;-79
2022/10/12 10:42:56;;;;;;;9.73;2.20;;;;;;;13.90;87.67;156015.00;4994046;28;20475;-77
2022/10/12 10:45:48;;;;;;;11.57;2.80;;;;;;;14.01;84.61;156041.97;5009506;28;20054;-76
2022/10/12 10:48:19;;;;;;;14.98;2.42;;;;;;;14.00;88.12;156039.41;5003047;28;20398;-77
2022/10/12 10:51:05;;;;;;;9.52;2.30;;;;;;;14.11;81.28;156066.38;4994469;28;20029;-77
2022/10/12 10:53:45;;;;;;;11.80;2.28;;;;;;;14.21;81.28;156093.41;5009030;28;20057;-78
2022/10/12 10:56:16;;;;;;;12.50;2.00;;;;;;;14.28;82.13;156108.81;4991228;28;20068;-78
2022/10/12 10:58:50;;;;;;;11.00;1.95;;;;;;;14.38;78.84;156134.56;4994268;28;20034;-75
2022/10/12 11:01:24;;;;;;;12.65;3.15;;;;;;;14.45;76.91;156151.25;5007474;28;20124;-78
2022/10/12 11:04:21;;;;;;;12.43;2.00;;;;;;;14.51;76.42;156166.72;4992159;28;20046;-77
2022/10/12 11:06:51;;;;;;;12.40;2.03;;;;;;;14.54;76.74;156174.41;5004648;28;20538;-77
2022/10/12 11:09:22;;;;;;;10.45;1.90;;;;;;;14.57;76.38;156182.19;4978524;28;20137;-77
2022/10/12 11:11:59;;;;;;;11.52;1.75;;;;;;;14.87;76.03;156258.06;5011241;28;20045;-77
2022/10/12 11:14:32;;;;;;;6.70;1.63;;;;;;;14.87;72.40;156256.78;5009392;28;20033;-75
2022/10/12 11:17:04;;;;;;;8.93;2.30;;;;;;;14.91;74.83;156267.06;4991388;28;20100;-77
2022/10/12 11:20:08;;;;;;;11.02;1.80;;;;;;;14.91;73.61;156267.06;5007208;28;20038;-77
2022/10/12 11:22:46;;;;;;;8.90;1.92;;;;;;;14.94;76.14;156274.81;4962810;28;20542;-77
2022/10/12 11:25:44;;;;;;;12.25;2.40;;;;;;;15.02;74.44;156294.09;4999647;28;20044;-79
2022/10/12 11:28:14;;;;;;;5.43;1.50;;;;;;;14.92;73.01;156270.94;4988538;28;20053;-78
2022/10/12 11:30:45;;;;;;;9.73;2.05;;;;;;;15.14;73.43;156326.28;4989455;28;20033;-75